createdAt,value
2018-08-28T00:01:24.806Z,2.53
2018-08-28T00:03:55.749Z,2.57
2018-08-28T00:06:26.532Z,2.90
2018-08-28T00:08:56.916Z,2.63
2018-08-28T00:11:27.834Z,2.80
2018-08-28T00:13:58.427Z,2.70
2018-08-28T00:16:29.006Z,2.80
2018-08-28T00:18:59.027Z,2.70
2018-08-28T00:21:29.410Z,2.80
2018-08-28T00:23:59.876Z,3.13
2018-08-28T00:26:30.663Z,2.87
2018-08-28T00:29:01.721Z,2.37
2018-08-28T00:31:33.379Z,3.00
2018-08-28T00:34:04.090Z,2.80
2018-08-28T00:36:34.424Z,2.67
2018-08-28T00:39:05.052Z,3.10
2018-08-28T00:41:35.177Z,2.83
2018-08-28T00:44:05.295Z,2.57
2018-08-28T00:46:34.798Z,2.47
2018-08-28T00:49:05.750Z,2.50
2018-08-28T00:51:36.179Z,2.40
2018-08-28T00:54:06.615Z,2.20
2018-08-28T00:56:36.663Z,2.10
2018-08-28T00:59:06.883Z,2.43
2018-08-28T01:01:36.468Z,2.23
2018-08-28T01:04:06.095Z,2.33
2018-08-28T01:06:36.260Z,2.50
2018-08-28T01:09:07.575Z,1.93
2018-08-28T01:11:37.835Z,2.07
2018-08-28T01:14:07.610Z,2.30
2018-08-28T01:16:37.563Z,2.33
2018-08-28T01:19:07.160Z,2.13
2018-08-28T01:21:37.035Z,2.60
2018-08-28T01:24:07.414Z,2.20
2018-08-28T01:26:37.837Z,1.70
2018-08-28T01:29:07.388Z,1.97
2018-08-28T01:31:37.127Z,1.87
2018-08-28T01:34:06.931Z,1.80
2018-08-28T01:36:36.485Z,2.08
2018-08-28T01:39:10.795Z,1.87
2018-08-28T01:41:40.344Z,1.83
2018-08-28T01:44:09.912Z,1.60
2018-08-28T01:46:40.900Z,1.67
2018-08-28T01:49:11.236Z,1.80
2018-08-28T01:51:41.905Z,1.80
2018-08-28T01:54:12.123Z,2.00
2018-08-28T01:56:41.963Z,1.90
2018-08-28T01:59:12.651Z,1.83
2018-08-28T02:01:43.048Z,2.10
2018-08-28T02:04:12.995Z,1.92
2018-08-28T02:06:43.645Z,1.97
2018-08-28T02:09:13.704Z,1.73
2018-08-28T02:11:43.788Z,1.70
2018-08-28T02:14:14.205Z,1.87
2018-08-28T02:16:44.388Z,2.10
2018-08-28T02:19:14.310Z,2.10
2018-08-28T02:21:44.985Z,1.83
2018-08-28T02:24:15.395Z,2.00
2018-08-28T02:26:45.364Z,1.90
2018-08-28T02:29:15.500Z,2.17
2018-08-28T02:31:46.382Z,2.23
2018-08-28T02:34:16.476Z,2.30
2018-08-28T02:36:49.272Z,2.20
2018-08-28T02:39:18.812Z,2.00
2018-08-28T02:41:49.520Z,2.10
2018-08-28T02:44:19.884Z,2.13
2018-08-28T02:46:50.467Z,2.17
2018-08-28T02:49:21.468Z,2.47
2018-08-28T02:51:51.125Z,2.40
2018-08-28T02:54:20.740Z,2.40
2018-08-28T02:56:51.068Z,3.07
2018-08-28T02:59:21.168Z,2.20
2018-08-28T03:01:50.835Z,2.40
2018-08-28T03:04:22.090Z,2.00
2018-08-28T03:06:51.843Z,2.20
2018-08-28T03:09:22.084Z,2.13
2018-08-28T03:11:52.188Z,2.23
2018-08-28T03:14:22.707Z,2.50
2018-08-28T03:16:52.723Z,2.53
2018-08-28T03:19:22.348Z,2.23
2018-08-28T03:21:52.764Z,2.30
2018-08-28T03:24:22.875Z,2.67
2018-08-28T03:26:53.115Z,2.50
2018-08-28T03:29:23.628Z,2.93
2018-08-28T03:31:53.976Z,2.40
2018-08-28T03:34:23.987Z,2.30
2018-08-28T03:36:54.207Z,2.50
2018-08-28T03:39:24.835Z,2.23
2018-08-28T03:41:55.869Z,2.70
2018-08-28T03:44:27.169Z,2.40
2018-08-28T03:46:57.863Z,2.70
2018-08-28T03:49:27.563Z,2.70
2018-08-28T03:51:57.479Z,1.93
2018-08-28T03:54:27.790Z,2.43
2018-08-28T03:56:57.591Z,2.60
2018-08-28T03:59:28.240Z,2.53
2018-08-28T04:01:57.956Z,2.10
2018-08-28T04:04:28.316Z,2.53
2018-08-28T04:06:58.806Z,2.47
2018-08-28T04:09:29.128Z,2.73
2018-08-28T04:11:58.975Z,2.90
2018-08-28T04:14:30.083Z,2.80
2018-08-28T04:17:00.243Z,2.50
2018-08-28T04:19:30.327Z,2.40
2018-08-28T04:22:00.456Z,2.63
2018-08-28T04:24:30.589Z,3.10
2018-08-28T04:27:00.500Z,3.10
2018-08-28T04:29:30.806Z,3.20
2018-08-28T04:31:59.889Z,3.40
2018-08-28T04:34:28.851Z,3.30
2018-08-28T04:37:00.838Z,3.57
2018-08-28T04:39:29.934Z,3.70
2018-08-28T04:41:58.974Z,3.20
2018-08-28T04:44:28.215Z,3.50
2018-08-28T04:46:57.538Z,3.20
2018-08-28T04:49:26.534Z,3.30
2018-08-28T04:51:55.863Z,3.50
2018-08-28T04:54:25.390Z,3.17
2018-08-28T04:56:54.998Z,2.70
2018-08-28T04:59:24.015Z,2.80
2018-08-28T05:01:53.009Z,3.00
2018-08-28T05:04:22.900Z,3.17
2018-08-28T05:06:51.942Z,2.90
2018-08-28T05:09:21.203Z,2.77
2018-08-28T05:11:50.872Z,3.07
2018-08-28T05:14:19.818Z,3.20
2018-08-28T05:16:49.401Z,3.90
2018-08-28T05:19:19.534Z,3.50
2018-08-28T05:21:48.783Z,3.43
2018-08-28T05:24:17.931Z,3.37
2018-08-28T05:26:47.831Z,3.53
2018-08-28T05:29:17.440Z,3.33
2018-08-28T05:31:46.754Z,3.53
2018-08-28T05:34:16.655Z,3.30
2018-08-28T05:36:46.263Z,2.90
2018-08-28T05:39:15.279Z,3.33
2018-08-28T05:41:44.863Z,3.07
2018-08-28T05:44:13.966Z,3.10
2018-08-28T05:46:44.078Z,3.00
2018-08-28T05:49:13.685Z,3.10
2018-08-28T05:51:43.295Z,3.10
2018-08-28T05:54:12.594Z,3.00
2018-08-28T05:56:41.895Z,2.53
2018-08-28T05:59:11.504Z,3.30
2018-08-28T06:01:40.559Z,3.07
2018-08-28T06:04:09.796Z,2.97
2018-08-28T06:06:38.850Z,2.87
2018-08-28T06:09:08.704Z,3.12
2018-08-28T06:11:38.019Z,3.27
2018-08-28T06:14:07.305Z,3.40
2018-08-28T06:16:37.221Z,3.10
2018-08-28T06:19:06.828Z,3.27
2018-08-28T06:21:35.876Z,3.10
2018-08-28T06:24:04.867Z,3.27
2018-08-28T06:26:35.047Z,3.60
2018-08-28T06:29:04.455Z,3.50
2018-08-28T06:31:34.249Z,3.33
2018-08-28T06:34:04.252Z,2.93
2018-08-28T06:36:33.188Z,3.17
2018-08-28T06:39:02.623Z,2.93
2018-08-28T06:41:32.082Z,3.50
2018-08-28T06:44:01.473Z,3.00
2018-08-28T06:46:30.668Z,3.80
2018-08-28T06:48:59.702Z,3.80
2018-08-28T06:51:29.363Z,3.20
2018-08-28T06:53:58.567Z,3.20
2018-08-28T06:56:27.619Z,3.30
2018-08-28T06:58:56.851Z,3.30
2018-08-28T07:01:25.875Z,3.08
2018-08-28T07:03:55.495Z,3.35
2018-08-28T07:06:30.295Z,3.75
2018-08-28T07:08:59.656Z,3.10
2018-08-28T07:11:28.635Z,2.95
2018-08-28T07:13:57.983Z,3.17
2018-08-28T07:16:27.800Z,2.95
2018-08-28T07:18:56.847Z,3.10
2018-08-28T07:21:26.407Z,2.90
2018-08-28T07:23:55.878Z,3.30
2018-08-28T07:26:25.054Z,2.98
2018-08-28T07:28:54.609Z,2.63
2018-08-28T07:31:23.962Z,3.22
2018-08-28T07:33:53.215Z,2.58
2018-08-28T07:36:22.231Z,2.95
2018-08-28T07:38:52.119Z,2.95
2018-08-28T07:41:21.729Z,3.10
2018-08-28T07:43:51.195Z,2.60
2018-08-28T07:46:20.944Z,2.67
2018-08-28T07:48:50.563Z,2.47
2018-08-28T07:51:19.646Z,2.80
2018-08-28T07:53:49.476Z,3.00
2018-08-28T07:56:18.926Z,2.70
2018-08-28T07:58:48.639Z,3.55
2018-08-28T08:01:17.721Z,3.35
2018-08-28T08:03:47.272Z,3.10
2018-08-28T08:06:16.286Z,3.35
2018-08-28T08:08:45.288Z,2.90
2018-08-28T08:11:14.370Z,3.08
2018-08-28T08:13:44.167Z,3.05
2018-08-28T08:16:13.292Z,2.80
2018-08-28T08:18:42.204Z,3.00
2018-08-28T08:21:11.453Z,2.52
2018-08-28T08:23:40.832Z,3.00
2018-08-28T08:26:09.795Z,3.33
2018-08-28T08:28:39.175Z,3.15
2018-08-28T08:31:08.963Z,3.08
2018-08-28T08:33:38.570Z,3.40
2018-08-28T08:36:07.598Z,3.40
2018-08-28T08:38:37.480Z,3.27
2018-08-28T08:41:06.826Z,3.50
2018-08-28T08:43:35.797Z,3.55
2018-08-28T08:46:05.219Z,3.45
2018-08-28T08:48:34.742Z,3.50
2018-08-28T08:51:04.595Z,3.20
2018-08-28T08:53:33.947Z,3.33
2018-08-28T08:56:03.666Z,3.27
2018-08-28T08:58:35.735Z,3.42
2018-08-28T09:01:07.082Z,3.58
2018-08-28T09:03:36.638Z,3.47
2018-08-28T09:06:06.575Z,3.30
2018-08-28T09:08:35.863Z,3.65
2018-08-28T09:11:05.265Z,3.10
2018-08-28T09:13:34.535Z,3.55
2018-08-28T09:16:03.878Z,3.35
2018-08-28T09:18:33.656Z,3.30
2018-08-28T09:21:02.991Z,3.20
2018-08-28T09:23:32.283Z,3.05
2018-08-28T09:26:02.172Z,2.98
2018-08-28T09:28:31.223Z,2.95
2018-08-28T09:31:00.479Z,3.02
2018-08-28T09:33:31.034Z,3.37
2018-08-28T09:36:00.603Z,2.87
2018-08-28T09:38:30.225Z,3.58
2018-08-28T09:40:59.964Z,3.60
2018-08-28T09:43:29.507Z,2.98
2018-08-28T09:45:59.033Z,3.05
2018-08-28T09:48:28.819Z,3.83
2018-08-28T09:50:58.333Z,3.92
2018-08-28T09:53:27.714Z,3.77
2018-08-28T09:55:57.796Z,3.10
2018-08-28T09:58:27.071Z,3.33
2018-08-28T10:02:03.657Z,3.33
2018-08-28T10:04:33.849Z,3.33
2018-08-28T10:07:02.882Z,3.25
2018-08-28T10:09:31.887Z,3.30
2018-08-28T10:12:01.466Z,3.37
2018-08-28T10:14:31.074Z,3.33
2018-08-28T10:17:00.104Z,2.98
2018-08-28T10:19:29.675Z,3.22
2018-08-28T10:21:59.281Z,3.00
2018-08-28T10:24:28.603Z,3.30
2018-08-28T10:26:57.606Z,3.22
2018-08-28T10:29:27.988Z,3.37
2018-08-28T10:31:57.786Z,3.40
2018-08-28T10:34:27.784Z,3.22
2018-08-28T10:36:57.501Z,3.60
2018-08-28T10:39:27.149Z,3.75
2018-08-28T10:41:57.042Z,3.77
2018-08-28T10:44:26.154Z,3.80
2018-08-28T10:46:55.407Z,3.72
2018-08-28T10:49:25.771Z,3.70
2018-08-28T10:51:55.467Z,4.20
2018-08-28T10:54:25.386Z,3.92
2018-08-28T10:56:54.686Z,3.55
2018-08-28T10:59:24.186Z,3.72
2018-08-28T11:01:53.370Z,4.22
2018-08-28T11:04:22.415Z,3.17
2018-08-28T11:06:51.863Z,3.75
2018-08-28T11:09:21.250Z,3.92
2018-08-28T11:11:50.818Z,3.90
2018-08-28T11:14:19.887Z,3.85
2018-08-28T11:16:49.142Z,3.80
2018-08-28T11:19:18.413Z,3.50
2018-08-28T11:21:47.475Z,4.05
2018-08-28T11:24:17.021Z,3.85
2018-08-28T11:26:46.480Z,3.75
2018-08-28T11:29:16.249Z,3.90
2018-08-28T11:31:45.595Z,3.75
2018-08-28T11:34:15.498Z,3.42
2018-08-28T11:36:44.744Z,3.55
2018-08-28T11:39:14.162Z,3.47
2018-08-28T11:41:43.686Z,3.50
2018-08-28T11:44:13.265Z,3.40
2018-08-28T11:46:42.281Z,3.92
2018-08-28T11:49:11.840Z,3.90
2018-08-28T11:51:41.777Z,4.05
2018-08-28T11:54:11.383Z,4.05
2018-08-28T11:56:40.969Z,3.90
2018-08-28T11:59:10.386Z,4.03
2018-08-28T12:01:39.754Z,4.08
2018-08-28T12:04:09.227Z,4.00
2018-08-28T12:06:38.845Z,3.45
2018-08-28T12:09:08.736Z,3.90
2018-08-28T12:11:39.866Z,3.98
2018-08-28T12:14:10.299Z,3.72
2018-08-28T12:16:41.207Z,3.42
2018-08-28T12:19:10.351Z,3.37
2018-08-28T12:21:40.472Z,3.60
2018-08-28T12:24:10.525Z,3.35
2018-08-28T12:26:41.511Z,3.50
2018-08-28T12:29:10.550Z,3.60
2018-08-28T12:31:39.837Z,3.33
2018-08-28T12:34:09.682Z,3.58
2018-08-28T12:36:39.137Z,3.52
2018-08-28T12:39:11.331Z,3.02
2018-08-28T12:41:40.739Z,3.80
2018-08-28T12:44:10.499Z,3.65
2018-08-28T12:46:40.209Z,3.27
2018-08-28T12:49:09.604Z,3.35
2018-08-28T12:51:38.895Z,3.02
2018-08-28T12:54:08.250Z,3.10
2018-08-28T12:56:38.022Z,3.12
2018-08-28T12:59:07.940Z,2.90
2018-08-28T13:01:36.987Z,3.45
2018-08-28T13:04:09.468Z,2.95
2018-08-28T13:06:39.089Z,3.10
2018-08-28T13:09:10.180Z,2.87
2018-08-28T13:11:42.147Z,3.20
2018-08-28T13:14:15.530Z,3.08
2018-08-28T13:16:46.197Z,3.00
2018-08-28T13:19:18.435Z,3.67
2018-08-28T13:21:56.592Z,3.10
2018-08-28T13:24:26.750Z,2.87
2018-08-28T13:26:59.543Z,3.20
2018-08-28T13:29:31.195Z,3.33
2018-08-28T13:32:01.042Z,2.95
2018-08-28T13:34:31.025Z,3.75
2018-08-28T13:37:01.191Z,4.58
2018-08-28T13:39:32.323Z,3.83
2018-08-28T13:42:03.764Z,4.40
2018-08-28T13:44:33.314Z,4.20
2018-08-28T13:47:02.970Z,4.30
2018-08-28T13:49:32.452Z,4.45
2018-08-28T13:52:02.249Z,4.33
2018-08-28T13:54:32.282Z,4.33
2018-08-28T13:57:02.708Z,5.08
2018-08-28T13:59:32.795Z,5.12
2018-08-28T14:02:03.797Z,4.25
2018-08-28T14:04:34.519Z,5.33
2018-08-28T14:07:06.024Z,4.42
2018-08-28T14:09:35.864Z,4.70
2018-08-28T14:12:05.623Z,5.05
2018-08-28T14:14:35.813Z,5.03
2018-08-28T14:17:07.265Z,4.10
2018-08-28T14:19:38.324Z,4.20
2018-08-28T14:22:09.041Z,4.28
2018-08-28T14:24:39.186Z,4.30
2018-08-28T14:27:11.735Z,4.70
2018-08-28T14:32:42.571Z,3.72
2018-08-28T14:35:13.110Z,4.90
2018-08-28T14:37:42.429Z,4.55
2018-08-28T14:40:11.676Z,4.33
2018-08-28T14:42:41.554Z,4.30
2018-08-28T14:45:11.383Z,4.05
2018-08-28T14:47:41.179Z,4.35
2018-08-28T14:50:10.900Z,4.25
2018-08-28T14:52:40.511Z,3.98
2018-08-28T14:55:10.660Z,4.70
2018-08-28T14:57:40.128Z,4.53
2018-08-28T15:00:09.769Z,4.00
2018-08-28T15:02:39.187Z,4.35
2018-08-28T15:05:08.993Z,4.92
2018-08-28T15:07:38.466Z,5.22
2018-08-28T15:10:08.023Z,5.20
2018-08-28T15:13:08.060Z,4.60
2018-08-28T15:15:38.301Z,4.30
2018-08-28T15:18:08.712Z,4.70
2018-08-28T15:20:40.396Z,4.92
2018-08-28T15:23:10.030Z,4.05
2018-08-28T15:25:40.994Z,4.83
2018-08-28T15:28:11.521Z,4.45
2018-08-28T15:30:41.465Z,4.60
2018-08-28T15:33:11.093Z,4.47
2018-08-28T15:35:41.618Z,4.60
2018-08-28T15:38:11.359Z,5.30
2018-08-28T15:40:41.061Z,4.80
2018-08-28T15:43:11.017Z,3.87
2018-08-28T15:45:40.954Z,4.42
2018-08-28T15:48:12.221Z,4.17
2018-08-28T15:50:43.073Z,4.87
2018-08-28T15:53:12.570Z,4.70
2018-08-28T15:55:42.422Z,4.47
2018-08-28T15:58:12.521Z,4.17
2018-08-28T16:00:42.267Z,4.90
2018-08-28T16:03:11.724Z,4.40
2018-08-28T16:05:42.402Z,4.70
2018-08-28T16:08:12.016Z,4.00
2018-08-28T16:10:41.777Z,4.37
2018-08-28T16:13:11.373Z,4.35
2018-08-28T16:15:41.137Z,3.92
2018-08-28T16:18:10.709Z,4.40
2018-08-28T16:20:42.237Z,4.97
2018-08-28T16:23:44.627Z,4.42
2018-08-28T16:26:15.427Z,5.53
2018-08-28T16:28:46.061Z,4.90
2018-08-28T16:31:15.610Z,4.37
2018-08-28T16:33:45.780Z,4.58
2018-08-28T16:36:15.427Z,4.58
2018-08-28T16:38:45.130Z,4.22
2018-08-28T16:41:16.420Z,4.42
2018-08-28T16:43:48.943Z,4.50
2018-08-28T16:46:21.716Z,4.22
2018-08-28T16:48:51.718Z,4.80
2018-08-28T16:51:22.593Z,4.70
2018-08-28T16:53:52.970Z,4.20
2018-08-28T16:56:22.255Z,4.58
2018-08-28T16:58:55.825Z,4.50
2018-08-28T17:01:27.629Z,4.42
2018-08-28T17:03:59.833Z,4.55
2018-08-28T17:06:30.318Z,4.35
2018-08-28T17:09:02.725Z,4.30
2018-08-28T17:11:33.634Z,5.12
2018-08-28T17:14:03.456Z,5.47
2018-08-28T17:16:33.331Z,4.97
2018-08-28T17:19:02.788Z,4.95
2018-08-28T17:21:31.869Z,5.35
2018-08-28T17:24:01.579Z,5.23
2018-08-28T17:26:31.658Z,4.80
2018-08-28T17:29:01.566Z,4.90
2018-08-28T17:31:31.199Z,4.35
2018-08-28T17:34:00.431Z,5.08
2018-08-28T17:36:30.028Z,5.22
2018-08-28T17:38:59.635Z,4.97
2018-08-28T17:41:30.001Z,4.72
2018-08-28T17:43:59.608Z,5.83
2018-08-28T17:46:29.200Z,5.90
2018-08-28T17:48:59.355Z,5.67
2018-08-28T17:51:32.405Z,5.50
2018-08-28T17:54:02.197Z,5.58
2018-08-28T17:56:34.435Z,4.72
2018-08-28T17:59:05.486Z,5.33
2018-08-28T18:01:36.548Z,4.90
2018-08-28T18:04:38.400Z,5.20
2018-08-28T18:07:08.850Z,5.53
2018-08-28T18:09:38.271Z,5.25
2018-08-28T18:12:08.734Z,5.75
2018-08-28T18:14:50.480Z,5.90
2018-08-28T18:17:19.778Z,6.12
2018-08-28T18:19:49.879Z,7.92
2018-08-28T18:22:19.517Z,8.70
2018-08-28T18:24:50.480Z,8.48
2018-08-28T18:27:20.402Z,6.67
2018-08-28T18:29:49.954Z,7.00
2018-08-28T18:32:20.375Z,7.10
2018-08-28T18:34:51.704Z,6.43
2018-08-28T18:37:23.501Z,7.78
2018-08-28T18:39:52.863Z,14.70
2018-08-28T18:42:23.361Z,5.55
2018-08-28T18:44:57.143Z,6.57
2018-08-28T18:47:27.486Z,5.50
2018-08-28T18:50:02.004Z,6.30
2018-08-28T18:52:31.475Z,5.87
2018-08-28T18:55:02.370Z,5.25
2018-08-28T18:57:31.691Z,5.40
2018-08-28T19:00:03.078Z,5.87
2018-08-28T19:02:33.870Z,5.65
2018-08-28T19:05:03.854Z,6.27
2018-08-28T19:07:33.636Z,6.97
2018-08-28T19:10:03.084Z,6.85
2018-08-28T19:12:32.845Z,7.97
2018-08-28T19:15:05.850Z,6.80
2018-08-28T19:17:35.124Z,7.70
2018-08-28T19:20:04.732Z,5.92
2018-08-28T19:22:33.789Z,5.95
2018-08-28T19:25:03.035Z,5.95
2018-08-28T19:27:32.190Z,6.28
2018-08-28T19:30:01.379Z,5.75
2018-08-28T19:32:30.338Z,5.33
2018-08-28T19:35:01.115Z,5.78
2018-08-28T19:37:30.608Z,5.17
2018-08-28T19:40:00.535Z,5.65
2018-08-28T19:42:29.701Z,6.05
2018-08-28T19:44:58.684Z,6.25
2018-08-28T19:47:30.115Z,7.30
2018-08-28T19:50:04.323Z,7.62
2018-08-28T19:52:36.495Z,7.95
2018-08-28T19:55:06.146Z,7.87
2018-08-28T19:57:37.197Z,8.40
2018-08-28T20:00:07.644Z,9.48
2018-08-28T20:02:37.276Z,9.08
2018-08-28T20:05:07.500Z,9.88
2018-08-28T20:07:37.107Z,7.90
2018-08-28T20:10:08.421Z,7.03
2018-08-28T20:12:38.031Z,6.08
2018-08-28T20:15:08.306Z,6.37
2018-08-28T20:17:38.393Z,8.38
2018-08-28T20:20:08.297Z,14.00
2018-08-28T20:22:40.932Z,14.13
2018-08-28T20:25:11.643Z,12.35
2018-08-28T20:27:42.926Z,9.98
2018-08-28T20:30:13.519Z,8.67
2018-08-28T20:32:43.498Z,7.90
2018-08-28T20:35:14.169Z,7.07
2018-08-28T20:37:46.806Z,7.37
2018-08-28T20:40:16.881Z,6.28
2018-08-28T20:42:46.787Z,6.55
2018-08-28T20:45:16.724Z,6.12
2018-08-28T20:47:47.099Z,6.60
2018-08-28T20:50:17.449Z,6.90
2018-08-28T20:52:47.699Z,5.83
2018-08-28T20:55:17.516Z,6.25
2018-08-28T20:57:46.547Z,6.35
2018-08-28T21:00:18.734Z,5.35
2018-08-28T21:02:49.939Z,5.12
2018-08-28T21:05:25.554Z,5.20
2018-08-28T21:07:57.929Z,5.10
2018-08-28T21:10:27.259Z,4.93
2018-08-28T21:12:58.917Z,4.80
2018-08-28T21:15:28.397Z,4.63
2018-08-28T21:17:58.069Z,4.90
2018-08-28T21:20:27.428Z,4.83
2018-08-28T21:22:57.044Z,4.95
2018-08-28T21:25:26.769Z,5.10
2018-08-28T21:27:55.955Z,5.17
2018-08-28T21:30:24.957Z,5.00
2018-08-28T21:32:54.246Z,5.00
2018-08-28T21:35:23.507Z,4.90
2018-08-28T21:37:52.947Z,4.50
2018-08-28T21:40:22.113Z,5.12
2018-08-28T21:42:51.144Z,4.87
2018-08-28T21:45:20.681Z,4.45
2018-08-28T21:47:49.698Z,5.07
2018-08-28T21:50:19.247Z,4.72
2018-08-28T21:52:48.892Z,5.03
2018-08-28T21:55:18.330Z,5.17
2018-08-28T21:57:48.105Z,5.00
2018-08-28T22:00:18.040Z,5.00
2018-08-28T22:02:47.586Z,4.53
2018-08-28T22:05:16.652Z,4.97
2018-08-28T22:07:46.227Z,5.10
2018-08-28T22:10:15.838Z,4.60
2018-08-28T22:12:45.750Z,5.30
2018-08-28T22:15:14.771Z,5.55
2018-08-28T22:17:44.099Z,5.33
2018-08-28T22:20:13.051Z,4.90
2018-08-28T22:22:42.611Z,4.80
2018-08-28T22:25:12.252Z,4.87
2018-08-28T22:27:41.632Z,5.40
2018-08-28T22:30:11.421Z,4.27
2018-08-28T22:32:41.921Z,4.67
2018-08-28T22:35:11.449Z,4.83
2018-08-28T22:37:41.273Z,4.43
2018-08-28T22:40:11.581Z,5.27
2018-08-28T22:42:41.453Z,4.33
2018-08-28T22:45:10.822Z,4.90
2018-08-28T22:47:40.564Z,4.80
2018-08-28T22:50:09.948Z,5.10
2018-08-28T22:52:39.498Z,4.93
2018-08-28T22:55:09.082Z,4.47
2018-08-28T22:57:38.130Z,5.27
2018-08-28T23:00:07.459Z,4.80
2018-08-28T23:02:36.675Z,5.13
2018-08-28T23:05:06.285Z,4.80
2018-08-28T23:07:35.341Z,5.13
2018-08-28T23:10:04.583Z,6.00
2018-08-28T23:12:34.185Z,5.50
2018-08-28T23:15:03.529Z,5.07
2018-08-28T23:17:33.366Z,5.50
2018-08-28T23:20:02.759Z,5.50
2018-08-28T23:22:32.023Z,5.37
2018-08-28T23:25:01.402Z,5.90
2018-08-28T23:27:31.214Z,5.90
2018-08-28T23:30:00.222Z,5.40
2018-08-28T23:32:29.283Z,5.90
2018-08-28T23:34:58.770Z,6.23
2018-08-28T23:37:28.159Z,5.37
2018-08-28T23:39:57.250Z,5.67
2018-08-28T23:42:27.016Z,5.47
2018-08-28T23:44:56.624Z,5.17
2018-08-28T23:47:25.659Z,5.17
2018-08-28T23:49:54.762Z,4.87
2018-08-28T23:52:24.693Z,4.90
2018-08-28T23:54:53.929Z,4.40
2018-08-28T23:57:23.442Z,4.90
2018-08-28T23:59:53.349Z,5.03
